sensor_id;sensor_type;location;lat;lon;timestamp;temperature;humidity
6018;DHT22;3037;51.068;13.780;2023-11-19T00:01:18;4.50;99.90
6018;DHT22;3037;51.068;13.780;2023-11-19T00:03:44;4.50;1.00
6018;DHT22;3037;51.068;13.780;2023-11-19T00:06:10;4.40;1.00
6018;DHT22;3037;51.068;13.780;2023-11-19T00:08:36;4.50;1.00
6018;DHT22;3037;51.068;13.780;2023-11-19T00:11:02;4.40;1.00
6018;DHT22;3037;51.068;13.780;2023-11-19T00:13:28;4.40;99.90
6018;DHT22;3037;51.068;13.780;2023-11-19T00:15:54;4.40;99.90
6018;DHT22;3037;51.068;13.780;2023-11-19T00:18:19;4.40;1.00
6018;DHT22;3037;51.068;13.780;2023-11-19T00:20:45;4.60;99.90
6018;DHT22;3037;51.068;13.780;2023-11-19T00:23:11;4.20;99.90
6018;DHT22;3037;51.068;13.780;2023-11-19T00:25:37;4.30;1.00
6018;DHT22;3037;51.068;13.780;2023-11-19T00:28:04;4.30;1.00
6018;DHT22;3037;51.068;13.780;2023-11-19T00:30:29;4.20;1.00
6018;DHT22;3037;51.068;13.780;2023-11-19T00:32:56;4.20;99.90
6018;DHT22;3037;51.068;13.780;2023-11-19T00:35:22;4.30;99.90
6018;DHT22;3037;51.068;13.780;2023-11-19T00:37:47;4.20;1.00
6018;DHT22;3037;51.068;13.780;2023-11-19T00:40:14;4.20;96.30
6018;DHT22;3037;51.068;13.780;2023-11-19T00:42:41;4.20;99.90
6018;DHT22;3037;51.068;13.780;2023-11-19T00:45:07;4.20;1.00
6018;DHT22;3037;51.068;13.780;2023-11-19T00:47:35;4.20;1.00
6018;DHT22;3037;51.068;13.780;2023-11-19T00:50:02;4.20;1.00
6018;DHT22;3037;51.068;13.780;2023-11-19T00:52:28;4.20;1.00
6018;DHT22;3037;51.068;13.780;2023-11-19T00:54:54;4.20;1.00
6018;DHT22;3037;51.068;13.780;2023-11-19T00:57:19;4.20;1.00
6018;DHT22;3037;51.068;13.780;2023-11-19T00:59:44;4.20;1.00
6018;DHT22;3037;51.068;13.780;2023-11-19T01:02:10;4.20;1.00
6018;DHT22;3037;51.068;13.780;2023-11-19T01:04:36;4.10;99.90
6018;DHT22;3037;51.068;13.780;2023-11-19T01:07:03;4.10;1.00
6018;DHT22;3037;51.068;13.780;2023-11-19T01:09:32;4.20;99.90
6018;DHT22;3037;51.068;13.780;2023-11-19T01:12:00;4.20;99.90
6018;DHT22;3037;51.068;13.780;2023-11-19T01:14:27;4.20;1.00
6018;DHT22;3037;51.068;13.780;2023-11-19T01:16:53;4.20;99.90
6018;DHT22;3037;51.068;13.780;2023-11-19T01:19:22;4.30;1.00
6018;DHT22;3037;51.068;13.780;2023-11-19T01:21:48;4.30;1.00
6018;DHT22;3037;51.068;13.780;2023-11-19T01:24:14;4.30;11.40
6018;DHT22;3037;51.068;13.780;2023-11-19T01:26:41;4.40;1.00
6018;DHT22;3037;51.068;13.780;2023-11-19T01:29:13;4.60;1.00
6018;DHT22;3037;51.068;13.780;2023-11-19T01:31:43;4.70;99.90
6018;DHT22;3037;51.068;13.780;2023-11-19T01:34:09;4.70;1.00
6018;DHT22;3037;51.068;13.780;2023-11-19T01:36:35;4.80;1.00
6018;DHT22;3037;51.068;13.780;2023-11-19T01:39:01;4.80;1.00
6018;DHT22;3037;51.068;13.780;2023-11-19T01:41:27;4.90;1.00
6018;DHT22;3037;51.068;13.780;2023-11-19T01:43:52;4.90;99.90
6018;DHT22;3037;51.068;13.780;2023-11-19T01:46:18;5.00;25.30
6018;DHT22;3037;51.068;13.780;2023-11-19T01:48:45;5.10;1.00
6018;DHT22;3037;51.068;13.780;2023-11-19T01:51:12;5.10;1.00
6018;DHT22;3037;51.068;13.780;2023-11-19T01:53:39;5.10;1.00
6018;DHT22;3037;51.068;13.780;2023-11-19T01:56:09;5.10;1.00
6018;DHT22;3037;51.068;13.780;2023-11-19T01:58:36;5.10;1.00
6018;DHT22;3037;51.068;13.780;2023-11-19T02:01:02;5.10;99.90
6018;DHT22;3037;51.068;13.780;2023-11-19T02:03:31;5.20;99.90
6018;DHT22;3037;51.068;13.780;2023-11-19T02:05:59;5.20;99.90
6018;DHT22;3037;51.068;13.780;2023-11-19T02:08:24;5.20;99.90
6018;DHT22;3037;51.068;13.780;2023-11-19T02:10:50;5.30;99.90
6018;DHT22;3037;51.068;13.780;2023-11-19T02:13:15;5.20;99.90
6018;DHT22;3037;51.068;13.780;2023-11-19T02:15:41;5.20;99.90
6018;DHT22;3037;51.068;13.780;2023-11-19T02:18:27;5.20;1.00
6018;DHT22;3037;51.068;13.780;2023-11-19T02:20:56;5.20;1.00
6018;DHT22;3037;51.068;13.780;2023-11-19T02:23:21;5.10;99.90
6018;DHT22;3037;51.068;13.780;2023-11-19T02:28:31;5.20;99.90
6018;DHT22;3037;51.068;13.780;2023-11-19T02:30:58;5.00;99.90
6018;DHT22;3037;51.068;13.780;2023-11-19T02:33:23;5.20;99.90
6018;DHT22;3037;51.068;13.780;2023-11-19T02:35:50;5.20;99.90
6018;DHT22;3037;51.068;13.780;2023-11-19T02:38:16;5.20;99.90
6018;DHT22;3037;51.068;13.780;2023-11-19T02:40:41;5.20;99.90
6018;DHT22;3037;51.068;13.780;2023-11-19T02:43:07;5.20;99.90
6018;DHT22;3037;51.068;13.780;2023-11-19T02:45:34;5.20;99.90
6018;DHT22;3037;51.068;13.780;2023-11-19T02:48:00;5.20;99.90
6018;DHT22;3037;51.068;13.780;2023-11-19T02:50:28;5.30;99.90
6018;DHT22;3037;51.068;13.780;2023-11-19T02:52:55;5.30;99.90
6018;DHT22;3037;51.068;13.780;2023-11-19T02:55:24;5.30;99.90
6018;DHT22;3037;51.068;13.780;2023-11-19T02:57:51;5.30;99.90
6018;DHT22;3037;51.068;13.780;2023-11-19T03:00:19;5.30;99.90
6018;DHT22;3037;51.068;13.780;2023-11-19T03:02:49;5.30;1.00
6018;DHT22;3037;51.068;13.780;2023-11-19T03:05:23;5.20;99.90
6018;DHT22;3037;51.068;13.780;2023-11-19T03:07:49;5.30;1.00
6018;DHT22;3037;51.068;13.780;2023-11-19T03:10:14;5.30;99.90
6018;DHT22;3037;51.068;13.780;2023-11-19T03:12:41;5.40;99.90
6018;DHT22;3037;51.068;13.780;2023-11-19T03:15:07;5.30;99.90
6018;DHT22;3037;51.068;13.780;2023-11-19T03:17:36;5.30;52.80
6018;DHT22;3037;51.068;13.780;2023-11-19T03:20:03;5.40;60.90
6018;DHT22;3037;51.068;13.780;2023-11-19T03:22:29;5.40;99.90
6018;DHT22;3037;51.068;13.780;2023-11-19T03:24:55;5.40;99.90
6018;DHT22;3037;51.068;13.780;2023-11-19T03:27:21;5.40;1.00
6018;DHT22;3037;51.068;13.780;2023-11-19T03:29:46;5.40;1.00
6018;DHT22;3037;51.068;13.780;2023-11-19T03:32:12;5.40;1.00
6018;DHT22;3037;51.068;13.780;2023-11-19T03:34:38;5.40;38.50
6018;DHT22;3037;51.068;13.780;2023-11-19T03:37:03;5.40;1.00
6018;DHT22;3037;51.068;13.780;2023-11-19T03:39:29;5.50;1.00
6018;DHT22;3037;51.068;13.780;2023-11-19T03:41:54;5.50;1.00
6018;DHT22;3037;51.068;13.780;2023-11-19T03:44:20;5.50;1.00
6018;DHT22;3037;51.068;13.780;2023-11-19T03:46:47;5.50;1.00
6018;DHT22;3037;51.068;13.780;2023-11-19T03:49:12;5.50;1.00
6018;DHT22;3037;51.068;13.780;2023-11-19T03:51:38;5.50;1.00
6018;DHT22;3037;51.068;13.780;2023-11-19T03:54:03;5.60;1.00
6018;DHT22;3037;51.068;13.780;2023-11-19T03:56:29;5.50;1.00
6018;DHT22;3037;51.068;13.780;2023-11-19T03:58:56;5.50;1.00
6018;DHT22;3037;51.068;13.780;2023-11-19T04:01:21;5.50;27.30
6018;DHT22;3037;51.068;13.780;2023-11-19T04:03:47;5.40;99.90
6018;DHT22;3037;51.068;13.780;2023-11-19T04:06:12;5.40;99.90
6018;DHT22;3037;51.068;13.780;2023-11-19T04:08:38;5.40;1.00
6018;DHT22;3037;51.068;13.780;2023-11-19T04:11:04;5.40;1.00
6018;DHT22;3037;51.068;13.780;2023-11-19T04:13:30;5.30;1.00
6018;DHT22;3037;51.068;13.780;2023-11-19T04:15:56;5.30;1.00
6018;DHT22;3037;51.068;13.780;2023-11-19T04:18:21;5.30;1.00
6018;DHT22;3037;51.068;13.780;2023-11-19T04:20:47;5.40;1.00
6018;DHT22;3037;51.068;13.780;2023-11-19T04:23:12;5.30;1.00
6018;DHT22;3037;51.068;13.780;2023-11-19T04:25:38;5.40;1.00
6018;DHT22;3037;51.068;13.780;2023-11-19T04:28:03;5.40;99.90
6018;DHT22;3037;51.068;13.780;2023-11-19T04:30:29;5.30;99.90
6018;DHT22;3037;51.068;13.780;2023-11-19T04:32:57;5.20;1.00
6018;DHT22;3037;51.068;13.780;2023-11-19T04:35:23;5.30;1.00
6018;DHT22;3037;51.068;13.780;2023-11-19T04:37:48;5.10;99.90
6018;DHT22;3037;51.068;13.780;2023-11-19T04:40:14;5.00;69.80
6018;DHT22;3037;51.068;13.780;2023-11-19T04:42:40;4.90;99.90
6018;DHT22;3037;51.068;13.780;2023-11-19T04:45:06;4.60;99.90
6018;DHT22;3037;51.068;13.780;2023-11-19T04:47:32;4.50;99.90
6018;DHT22;3037;51.068;13.780;2023-11-19T04:49:58;4.40;99.90
6018;DHT22;3037;51.068;13.780;2023-11-19T04:52:24;4.40;99.90
6018;DHT22;3037;51.068;13.780;2023-11-19T04:54:49;4.30;99.90
6018;DHT22;3037;51.068;13.780;2023-11-19T04:57:15;4.30;99.90
6018;DHT22;3037;51.068;13.780;2023-11-19T04:59:41;4.30;99.90
6018;DHT22;3037;51.068;13.780;2023-11-19T05:02:07;4.20;99.90
6018;DHT22;3037;51.068;13.780;2023-11-19T05:04:33;4.20;99.90
6018;DHT22;3037;51.068;13.780;2023-11-19T05:06:59;4.10;99.90
6018;DHT22;3037;51.068;13.780;2023-11-19T05:09:24;4.10;99.90
6018;DHT22;3037;51.068;13.780;2023-11-19T05:11:50;4.10;99.90
6018;DHT22;3037;51.068;13.780;2023-11-19T05:14:15;4.10;99.90
6018;DHT22;3037;51.068;13.780;2023-11-19T05:16:41;4.20;99.90
6018;DHT22;3037;51.068;13.780;2023-11-19T05:19:08;4.20;99.90
6018;DHT22;3037;51.068;13.780;2023-11-19T05:21:34;4.00;99.90
6018;DHT22;3037;51.068;13.780;2023-11-19T05:24:04;4.10;99.90
6018;DHT22;3037;51.068;13.780;2023-11-19T05:26:30;4.00;99.90
6018;DHT22;3037;51.068;13.780;2023-11-19T05:28:56;4.00;99.90
6018;DHT22;3037;51.068;13.780;2023-11-19T05:31:21;4.10;99.90
6018;DHT22;3037;51.068;13.780;2023-11-19T05:33:47;4.10;99.90
6018;DHT22;3037;51.068;13.780;2023-11-19T05:36:13;4.10;99.90
6018;DHT22;3037;51.068;13.780;2023-11-19T05:38:39;4.10;99.90
6018;DHT22;3037;51.068;13.780;2023-11-19T05:41:05;4.10;99.90
6018;DHT22;3037;51.068;13.780;2023-11-19T05:43:31;4.20;99.90
6018;DHT22;3037;51.068;13.780;2023-11-19T05:45:56;4.10;99.90
6018;DHT22;3037;51.068;13.780;2023-11-19T05:48:22;4.10;99.90
6018;DHT22;3037;51.068;13.780;2023-11-19T05:50:48;4.20;99.90
6018;DHT22;3037;51.068;13.780;2023-11-19T05:53:15;4.20;99.90
6018;DHT22;3037;51.068;13.780;2023-11-19T05:55:41;4.20;99.90
6018;DHT22;3037;51.068;13.780;2023-11-19T05:58:29;4.10;99.90
6018;DHT22;3037;51.068;13.780;2023-11-19T06:00:56;4.20;99.90
6018;DHT22;3037;51.068;13.780;2023-11-19T06:03:22;4.20;99.90
6018;DHT22;3037;51.068;13.780;2023-11-19T06:05:49;4.20;99.90
6018;DHT22;3037;51.068;13.780;2023-11-19T06:08:14;4.20;99.90
6018;DHT22;3037;51.068;13.780;2023-11-19T06:10:40;4.30;99.90
6018;DHT22;3037;51.068;13.780;2023-11-19T06:13:06;4.20;99.90
6018;DHT22;3037;51.068;13.780;2023-11-19T06:15:33;4.30;99.90
6018;DHT22;3037;51.068;13.780;2023-11-19T06:17:59;4.30;99.90
6018;DHT22;3037;51.068;13.780;2023-11-19T06:20:29;4.20;99.90
6018;DHT22;3037;51.068;13.780;2023-11-19T06:22:56;4.40;99.90
6018;DHT22;3037;51.068;13.780;2023-11-19T06:25:22;4.30;99.90
6018;DHT22;3037;51.068;13.780;2023-11-19T06:27:49;4.40;99.90
6018;DHT22;3037;51.068;13.780;2023-11-19T06:30:14;4.40;99.90
6018;DHT22;3037;51.068;13.780;2023-11-19T06:32:40;4.50;99.90
6018;DHT22;3037;51.068;13.780;2023-11-19T06:35:06;4.60;99.90
6018;DHT22;3037;51.068;13.780;2023-11-19T06:37:31;4.50;99.90
6018;DHT22;3037;51.068;13.780;2023-11-19T06:39:57;4.70;99.90
6018;DHT22;3037;51.068;13.780;2023-11-19T06:42:22;4.70;99.90
6018;DHT22;3037;51.068;13.780;2023-11-19T06:44:48;4.90;99.90
6018;DHT22;3037;51.068;13.780;2023-11-19T06:47:13;4.90;99.90
6018;DHT22;3037;51.068;13.780;2023-11-19T06:49:39;4.90;99.90
6018;DHT22;3037;51.068;13.780;2023-11-19T06:52:04;4.90;99.90
6018;DHT22;3037;51.068;13.780;2023-11-19T06:54:30;4.90;99.90
6018;DHT22;3037;51.068;13.780;2023-11-19T06:56:56;5.10;99.90
6018;DHT22;3037;51.068;13.780;2023-11-19T06:59:23;5.10;99.90
6018;DHT22;3037;51.068;13.780;2023-11-19T07:01:48;5.20;99.90
6018;DHT22;3037;51.068;13.780;2023-11-19T07:04:14;5.20;99.90
6018;DHT22;3037;51.068;13.780;2023-11-19T07:06:39;5.10;99.90
6018;DHT22;3037;51.068;13.780;2023-11-19T07:09:08;5.20;99.90
6018;DHT22;3037;51.068;13.780;2023-11-19T07:11:38;5.40;99.90
6018;DHT22;3037;51.068;13.780;2023-11-19T07:14:05;5.30;99.90
6018;DHT22;3037;51.068;13.780;2023-11-19T07:16:35;5.30;99.90
6018;DHT22;3037;51.068;13.780;2023-11-19T07:19:02;5.40;99.90
6018;DHT22;3037;51.068;13.780;2023-11-19T07:21:28;5.50;99.90
6018;DHT22;3037;51.068;13.780;2023-11-19T07:23:55;5.60;99.90
6018;DHT22;3037;51.068;13.780;2023-11-19T07:26:21;5.50;99.90
6018;DHT22;3037;51.068;13.780;2023-11-19T07:28:47;5.40;99.90
6018;DHT22;3037;51.068;13.780;2023-11-19T07:31:13;5.60;99.90
6018;DHT22;3037;51.068;13.780;2023-11-19T07:33:39;5.50;99.90
6018;DHT22;3037;51.068;13.780;2023-11-19T07:36:11;5.60;99.90
6018;DHT22;3037;51.068;13.780;2023-11-19T07:38:37;5.60;99.90
6018;DHT22;3037;51.068;13.780;2023-11-19T07:41:04;5.70;99.90
6018;DHT22;3037;51.068;13.780;2023-11-19T07:43:30;5.60;99.90
6018;DHT22;3037;51.068;13.780;2023-11-19T07:45:56;5.60;99.90
6018;DHT22;3037;51.068;13.780;2023-11-19T07:48:21;5.60;99.90
6018;DHT22;3037;51.068;13.780;2023-11-19T07:50:49;5.70;99.90
6018;DHT22;3037;51.068;13.780;2023-11-19T07:53:18;5.70;99.90
6018;DHT22;3037;51.068;13.780;2023-11-19T07:55:43;5.80;99.90
6018;DHT22;3037;51.068;13.780;2023-11-19T07:58:12;6.00;99.90
6018;DHT22;3037;51.068;13.780;2023-11-19T08:00:38;6.00;99.90
6018;DHT22;3037;51.068;13.780;2023-11-19T08:03:04;6.10;99.90
6018;DHT22;3037;51.068;13.780;2023-11-19T08:05:31;6.10;99.90
6018;DHT22;3037;51.068;13.780;2023-11-19T08:07:56;6.00;99.90
6018;DHT22;3037;51.068;13.780;2023-11-19T08:10:22;6.00;99.90
6018;DHT22;3037;51.068;13.780;2023-11-19T08:12:48;6.10;99.90
6018;DHT22;3037;51.068;13.780;2023-11-19T08:15:14;6.10;99.90
6018;DHT22;3037;51.068;13.780;2023-11-19T08:17:40;6.20;99.90
6018;DHT22;3037;51.068;13.780;2023-11-19T08:20:06;6.20;99.90
6018;DHT22;3037;51.068;13.780;2023-11-19T08:22:35;6.40;99.90
6018;DHT22;3037;51.068;13.780;2023-11-19T08:25:01;6.40;99.90
6018;DHT22;3037;51.068;13.780;2023-11-19T08:27:26;6.60;99.90
6018;DHT22;3037;51.068;13.780;2023-11-19T08:29:54;7.30;99.90
6018;DHT22;3037;51.068;13.780;2023-11-19T08:32:22;7.90;99.90
6018;DHT22;3037;51.068;13.780;2023-11-19T08:34:48;7.50;99.90
6018;DHT22;3037;51.068;13.780;2023-11-19T08:37:13;7.60;99.90
6018;DHT22;3037;51.068;13.780;2023-11-19T08:39:39;7.90;99.90
6018;DHT22;3037;51.068;13.780;2023-11-19T08:42:06;8.00;99.90
6018;DHT22;3037;51.068;13.780;2023-11-19T08:44:32;8.60;99.90
6018;DHT22;3037;51.068;13.780;2023-11-19T08:46:57;10.80;99.90
6018;DHT22;3037;51.068;13.780;2023-11-19T08:49:23;9.30;99.90
6018;DHT22;3037;51.068;13.780;2023-11-19T08:51:49;8.90;99.90
6018;DHT22;3037;51.068;13.780;2023-11-19T08:54:14;8.20;99.90
6018;DHT22;3037;51.068;13.780;2023-11-19T08:56:40;8.80;99.90
6018;DHT22;3037;51.068;13.780;2023-11-19T08:59:05;9.20;99.90
6018;DHT22;3037;51.068;13.780;2023-11-19T09:01:31;8.80;99.90
6018;DHT22;3037;51.068;13.780;2023-11-19T09:03:56;8.40;99.90
6018;DHT22;3037;51.068;13.780;2023-11-19T09:06:23;8.40;99.90
6018;DHT22;3037;51.068;13.780;2023-11-19T09:08:48;8.30;99.90
6018;DHT22;3037;51.068;13.780;2023-11-19T09:11:14;8.40;99.90
6018;DHT22;3037;51.068;13.780;2023-11-19T09:13:39;8.50;99.90
6018;DHT22;3037;51.068;13.780;2023-11-19T09:16:05;8.60;99.90
6018;DHT22;3037;51.068;13.780;2023-11-19T09:18:31;8.40;99.90
6018;DHT22;3037;51.068;13.780;2023-11-19T09:20:57;8.40;99.90
6018;DHT22;3037;51.068;13.780;2023-11-19T09:23:23;9.80;99.90
6018;DHT22;3037;51.068;13.780;2023-11-19T09:25:50;9.30;99.90
6018;DHT22;3037;51.068;13.780;2023-11-19T09:28:16;9.10;99.90
6018;DHT22;3037;51.068;13.780;2023-11-19T09:30:41;10.90;99.90
6018;DHT22;3037;51.068;13.780;2023-11-19T09:33:07;10.90;99.90
6018;DHT22;3037;51.068;13.780;2023-11-19T09:35:32;10.90;99.90
6018;DHT22;3037;51.068;13.780;2023-11-19T09:37:58;10.60;99.90
6018;DHT22;3037;51.068;13.780;2023-11-19T09:40:24;10.10;99.90
6018;DHT22;3037;51.068;13.780;2023-11-19T09:42:50;10.00;99.90
6018;DHT22;3037;51.068;13.780;2023-11-19T09:45:16;9.90;99.90
6018;DHT22;3037;51.068;13.780;2023-11-19T09:47:44;9.60;99.90
6018;DHT22;3037;51.068;13.780;2023-11-19T09:50:16;9.60;99.90
6018;DHT22;3037;51.068;13.780;2023-11-19T09:52:42;9.70;99.90
6018;DHT22;3037;51.068;13.780;2023-11-19T09:55:08;10.60;99.90
6018;DHT22;3037;51.068;13.780;2023-11-19T09:57:35;10.60;99.90
6018;DHT22;3037;51.068;13.780;2023-11-19T10:00:03;10.20;99.90
6018;DHT22;3037;51.068;13.780;2023-11-19T10:02:31;10.30;99.90
6018;DHT22;3037;51.068;13.780;2023-11-19T10:04:59;10.80;99.90
6018;DHT22;3037;51.068;13.780;2023-11-19T10:07:25;10.70;99.90
6018;DHT22;3037;51.068;13.780;2023-11-19T10:09:51;10.40;99.90
6018;DHT22;3037;51.068;13.780;2023-11-19T10:12:16;11.50;99.90
6018;DHT22;3037;51.068;13.780;2023-11-19T10:14:43;11.80;99.90
6018;DHT22;3037;51.068;13.780;2023-11-19T10:17:09;12.50;99.90
6018;DHT22;3037;51.068;13.780;2023-11-19T10:19:35;15.80;99.90
6018;DHT22;3037;51.068;13.780;2023-11-19T10:22:04;15.80;99.90
6018;DHT22;3037;51.068;13.780;2023-11-19T10:24:33;14.30;99.90
6018;DHT22;3037;51.068;13.780;2023-11-19T10:27:00;13.30;99.90
6018;DHT22;3037;51.068;13.780;2023-11-19T10:29:26;12.60;99.90
6018;DHT22;3037;51.068;13.780;2023-11-19T10:31:58;12.30;99.90
6018;DHT22;3037;51.068;13.780;2023-11-19T10:34:25;12.30;99.90
6018;DHT22;3037;51.068;13.780;2023-11-19T10:36:51;12.20;99.90
6018;DHT22;3037;51.068;13.780;2023-11-19T10:39:18;12.30;99.90
6018;DHT22;3037;51.068;13.780;2023-11-19T10:41:43;12.20;99.90
6018;DHT22;3037;51.068;13.780;2023-11-19T10:44:09;12.10;99.90
6018;DHT22;3037;51.068;13.780;2023-11-19T10:46:39;12.10;99.90
6018;DHT22;3037;51.068;13.780;2023-11-19T10:49:06;12.20;99.90
6018;DHT22;3037;51.068;13.780;2023-11-19T10:51:32;12.30;99.90
6018;DHT22;3037;51.068;13.780;2023-11-19T10:54:03;15.20;1.00
6018;DHT22;3037;51.068;13.780;2023-11-19T10:56:33;13.90;1.00
6018;DHT22;3037;51.068;13.780;2023-11-19T10:59:00;13.30;99.90
6018;DHT22;3037;51.068;13.780;2023-11-19T11:01:39;13.20;99.90
6018;DHT22;3037;51.068;13.780;2023-11-19T11:04:14;13.00;99.90
6018;DHT22;3037;51.068;13.780;2023-11-19T11:06:40;13.00;5.10
6018;DHT22;3037;51.068;13.780;2023-11-19T11:09:07;13.00;99.90
6018;DHT22;3037;51.068;13.780;2023-11-19T11:11:38;12.70;1.00
6018;DHT22;3037;51.068;13.780;2023-11-19T11:14:04;12.70;1.00
6018;DHT22;3037;51.068;13.780;2023-11-19T11:16:31;12.70;1.00
6018;DHT22;3037;51.068;13.780;2023-11-19T11:18:57;12.70;99.90
6018;DHT22;3037;51.068;13.780;2023-11-19T11:21:26;12.50;1.00
6018;DHT22;3037;51.068;13.780;2023-11-19T11:24:12;12.50;99.90
6018;DHT22;3037;51.068;13.780;2023-11-19T11:32:01;12.50;99.90
6018;DHT22;3037;51.068;13.780;2023-11-19T11:37:30;12.40;1.00
6018;DHT22;3037;51.068;13.780;2023-11-19T11:39:57;12.20;1.00
6018;DHT22;3037;51.068;13.780;2023-11-19T11:50:18;12.20;99.90
6018;DHT22;3037;51.068;13.780;2023-11-19T11:58:25;13.00;1.00
6018;DHT22;3037;51.068;13.780;2023-11-19T12:00:51;13.40;1.00
6018;DHT22;3037;51.068;13.780;2023-11-19T12:03:20;13.70;1.00
6018;DHT22;3037;51.068;13.780;2023-11-19T12:05:49;13.90;1.00
6018;DHT22;3037;51.068;13.780;2023-11-19T12:08:18;14.30;1.00
6018;DHT22;3037;51.068;13.780;2023-11-19T12:10:49;14.50;1.00
6018;DHT22;3037;51.068;13.780;2023-11-19T12:13:17;14.90;1.00
6018;DHT22;3037;51.068;13.780;2023-11-19T12:18:29;14.30;1.00
6018;DHT22;3037;51.068;13.780;2023-11-19T12:20:55;14.10;99.90
6018;DHT22;3037;51.068;13.780;2023-11-19T12:23:22;14.00;1.00
6018;DHT22;3037;51.068;13.780;2023-11-19T12:25:47;13.90;43.10
6018;DHT22;3037;51.068;13.780;2023-11-19T12:28:14;13.80;1.00
6018;DHT22;3037;51.068;13.780;2023-11-19T12:30:41;13.90;1.00
6018;DHT22;3037;51.068;13.780;2023-11-19T12:33:11;14.30;1.00
6018;DHT22;3037;51.068;13.780;2023-11-19T12:35:44;14.60;99.90
6018;DHT22;3037;51.068;13.780;2023-11-19T12:38:21;15.20;99.90
6018;DHT22;3037;51.068;13.780;2023-11-19T12:41:02;15.90;99.90
6018;DHT22;3037;51.068;13.780;2023-11-19T12:43:28;16.20;1.00
6018;DHT22;3037;51.068;13.780;2023-11-19T12:45:54;16.10;1.00
6018;DHT22;3037;51.068;13.780;2023-11-19T12:48:20;16.30;63.20
6018;DHT22;3037;51.068;13.780;2023-11-19T12:50:54;16.20;1.00
6018;DHT22;3037;51.068;13.780;2023-11-19T12:53:22;16.20;1.00
6018;DHT22;3037;51.068;13.780;2023-11-19T12:55:48;16.00;1.00
6018;DHT22;3037;51.068;13.780;2023-11-19T12:58:30;15.80;1.00
6018;DHT22;3037;51.068;13.780;2023-11-19T13:01:03;15.70;1.00
6018;DHT22;3037;51.068;13.780;2023-11-19T13:03:30;15.70;1.00
6018;DHT22;3037;51.068;13.780;2023-11-19T13:06:07;15.70;1.00
6018;DHT22;3037;51.068;13.780;2023-11-19T13:08:44;15.90;1.00
6018;DHT22;3037;51.068;13.780;2023-11-19T13:11:11;15.80;1.00
6018;DHT22;3037;51.068;13.780;2023-11-19T13:13:58;15.90;1.00
6018;DHT22;3037;51.068;13.780;2023-11-19T13:16:25;16.10;1.00
6018;DHT22;3037;51.068;13.780;2023-11-19T13:18:51;15.70;1.00
6018;DHT22;3037;51.068;13.780;2023-11-19T13:21:17;15.60;1.00
6018;DHT22;3037;51.068;13.780;2023-11-19T13:23:43;15.40;1.00
6018;DHT22;3037;51.068;13.780;2023-11-19T13:26:09;14.90;1.00
6018;DHT22;3037;51.068;13.780;2023-11-19T13:28:36;15.00;73.50
6018;DHT22;3037;51.068;13.780;2023-11-19T13:31:01;14.90;32.20
6018;DHT22;3037;51.068;13.780;2023-11-19T13:33:28;14.40;1.00
6018;DHT22;3037;51.068;13.780;2023-11-19T13:35:55;14.30;91.40
6018;DHT22;3037;51.068;13.780;2023-11-19T13:38:20;14.30;1.00
6018;DHT22;3037;51.068;13.780;2023-11-19T13:40:45;14.20;1.00
6018;DHT22;3037;51.068;13.780;2023-11-19T13:43:11;14.30;1.00
6018;DHT22;3037;51.068;13.780;2023-11-19T13:45:37;14.30;1.00
6018;DHT22;3037;51.068;13.780;2023-11-19T13:48:03;14.10;1.00
6018;DHT22;3037;51.068;13.780;2023-11-19T13:50:28;13.80;1.00
6018;DHT22;3037;51.068;13.780;2023-11-19T13:52:54;13.70;1.00
6018;DHT22;3037;51.068;13.780;2023-11-19T13:55:20;13.70;1.00
6018;DHT22;3037;51.068;13.780;2023-11-19T13:57:45;13.90;1.00
6018;DHT22;3037;51.068;13.780;2023-11-19T14:00:12;14.10;1.00
6018;DHT22;3037;51.068;13.780;2023-11-19T14:02:42;14.30;1.00
6018;DHT22;3037;51.068;13.780;2023-11-19T14:05:08;14.50;1.00
6018;DHT22;3037;51.068;13.780;2023-11-19T14:07:36;14.40;1.00
6018;DHT22;3037;51.068;13.780;2023-11-19T14:10:02;14.50;1.00
6018;DHT22;3037;51.068;13.780;2023-11-19T14:12:27;14.50;1.00
6018;DHT22;3037;51.068;13.780;2023-11-19T14:14:53;14.50;1.00
6018;DHT22;3037;51.068;13.780;2023-11-19T14:17:20;14.60;1.00
6018;DHT22;3037;51.068;13.780;2023-11-19T14:19:45;14.90;1.00
6018;DHT22;3037;51.068;13.780;2023-11-19T14:22:11;14.40;1.00
6018;DHT22;3037;51.068;13.780;2023-11-19T14:24:37;14.10;1.00
6018;DHT22;3037;51.068;13.780;2023-11-19T14:27:03;14.00;1.00
6018;DHT22;3037;51.068;13.780;2023-11-19T14:29:28;13.80;1.00
6018;DHT22;3037;51.068;13.780;2023-11-19T14:31:56;13.60;1.00
6018;DHT22;3037;51.068;13.780;2023-11-19T14:34:21;13.60;1.00
6018;DHT22;3037;51.068;13.780;2023-11-19T14:36:47;13.60;1.00
6018;DHT22;3037;51.068;13.780;2023-11-19T14:39:13;13.50;1.00
6018;DHT22;3037;51.068;13.780;2023-11-19T14:41:38;13.40;1.00
6018;DHT22;3037;51.068;13.780;2023-11-19T14:44:04;13.40;99.90
6018;DHT22;3037;51.068;13.780;2023-11-19T14:46:31;13.50;1.00
6018;DHT22;3037;51.068;13.780;2023-11-19T14:48:56;13.30;1.00
6018;DHT22;3037;51.068;13.780;2023-11-19T14:51:22;13.20;1.00
6018;DHT22;3037;51.068;13.780;2023-11-19T14:53:47;13.20;1.00
6018;DHT22;3037;51.068;13.780;2023-11-19T14:56:13;13.10;1.00
6018;DHT22;3037;51.068;13.780;2023-11-19T14:58:39;13.20;1.00
6018;DHT22;3037;51.068;13.780;2023-11-19T15:01:05;13.00;1.00
6018;DHT22;3037;51.068;13.780;2023-11-19T15:03:31;12.80;1.00
6018;DHT22;3037;51.068;13.780;2023-11-19T15:05:58;12.80;1.00
6018;DHT22;3037;51.068;13.780;2023-11-19T15:08:23;12.60;1.00
6018;DHT22;3037;51.068;13.780;2023-11-19T15:10:49;12.50;1.00
6018;DHT22;3037;51.068;13.780;2023-11-19T15:13:15;12.20;1.00
6018;DHT22;3037;51.068;13.780;2023-11-19T15:15:40;11.90;99.90
6018;DHT22;3037;51.068;13.780;2023-11-19T15:18:06;11.80;99.90
6018;DHT22;3037;51.068;13.780;2023-11-19T15:20:31;11.70;99.90
6018;DHT22;3037;51.068;13.780;2023-11-19T15:22:57;11.50;99.90
6018;DHT22;3037;51.068;13.780;2023-11-19T15:25:23;11.60;1.00
6018;DHT22;3037;51.068;13.780;2023-11-19T15:27:49;11.40;1.00
6018;DHT22;3037;51.068;13.780;2023-11-19T15:30:15;11.30;1.00
6018;DHT22;3037;51.068;13.780;2023-11-19T15:32:42;11.20;1.00
6018;DHT22;3037;51.068;13.780;2023-11-19T15:35:09;11.20;1.00
6018;DHT22;3037;51.068;13.780;2023-11-19T15:37:36;11.20;1.00
6018;DHT22;3037;51.068;13.780;2023-11-19T15:40:05;11.20;1.00
6018;DHT22;3037;51.068;13.780;2023-11-19T15:42:36;11.10;94.80
6018;DHT22;3037;51.068;13.780;2023-11-19T15:45:04;11.00;1.00
6018;DHT22;3037;51.068;13.780;2023-11-19T15:47:31;11.00;99.90
6018;DHT22;3037;51.068;13.780;2023-11-19T15:49:56;11.20;1.00
6018;DHT22;3037;51.068;13.780;2023-11-19T15:52:22;11.10;1.00
6018;DHT22;3037;51.068;13.780;2023-11-19T15:54:47;11.10;1.00
6018;DHT22;3037;51.068;13.780;2023-11-19T15:57:13;11.00;1.00
6018;DHT22;3037;51.068;13.780;2023-11-19T15:59:39;10.90;99.90
6018;DHT22;3037;51.068;13.780;2023-11-19T16:02:05;11.00;1.00
6018;DHT22;3037;51.068;13.780;2023-11-19T16:04:30;11.00;1.00
6018;DHT22;3037;51.068;13.780;2023-11-19T16:06:56;10.90;1.00
6018;DHT22;3037;51.068;13.780;2023-11-19T16:09:21;10.80;1.00
6018;DHT22;3037;51.068;13.780;2023-11-19T16:11:48;10.90;1.00
6018;DHT22;3037;51.068;13.780;2023-11-19T16:14:13;10.90;1.00
6018;DHT22;3037;51.068;13.780;2023-11-19T16:16:42;10.80;76.50
6018;DHT22;3037;51.068;13.780;2023-11-19T16:19:07;10.70;99.90
6018;DHT22;3037;51.068;13.780;2023-11-19T16:21:34;10.70;1.00
6018;DHT22;3037;51.068;13.780;2023-11-19T16:24:03;10.70;44.60
6018;DHT22;3037;51.068;13.780;2023-11-19T16:26:30;10.80;99.90